Time;durP1;ratioP1;P1;durP2;ratioP2;P2;SDS_P1;SDS_P2;PMS_P1;PMS_P2;Temp;Humidity;BMP_temperature;BMP_pressure;BME280_temperature;BME280_humidity;BME280_pressure;Samples;Min_cycle;Max_cycle;Signal;HPM_P1;HPM_P2
2023/08/16 00:01:13;;;;;;;0.65;0.50;;;17.70;1.00;;;;;;5046132;28;20110;-77
2023/08/16 00:03:40;;;;;;;0.65;0.50;;;17.70;76.30;;;;;;5065146;28;20058;-77
2023/08/16 00:06:11;;;;;;;0.77;0.60;;;17.60;99.90;;;;;;5065796;28;20060;-76
2023/08/16 00:08:39;;;;;;;1.20;0.57;;;17.60;99.90;;;;;;5065877;28;20036;-77
2023/08/16 00:11:05;;;;;;;0.40;0.40;;;17.60;1.00;;;;;;5061774;28;20080;-77
2023/08/16 00:13:33;;;;;;;0.52;0.50;;;17.50;1.00;;;;;;5047541;28;20121;-77
2023/08/16 00:16:00;;;;;;;0.55;0.52;;;17.50;99.90;;;;;;5058942;28;20091;-77
2023/08/16 00:18:28;;;;;;;0.73;0.57;;;17.50;99.90;;;;;;5061578;28;20459;-77
2023/08/16 00:20:56;;;;;;;0.82;0.52;;;17.40;99.90;;;;;;5059320;28;20882;-77
2023/08/16 00:23:23;;;;;;;1.50;0.80;;;17.30;99.90;;;;;;5055734;28;20054;-77
2023/08/16 00:25:50;;;;;;;0.75;0.55;;;17.20;99.90;;;;;;5040682;28;20116;-79
2023/08/16 00:28:17;;;;;;;0.50;0.50;;;17.10;99.90;;;;;;5060075;28;20403;-79
2023/08/16 00:30:43;;;;;;;0.47;0.47;;;17.10;99.90;;;;;;5054322;28;20139;-79
2023/08/16 00:33:10;;;;;;;0.60;0.60;;;17.10;99.90;;;;;;5061281;28;20135;-79
2023/08/16 00:35:37;;;;;;;0.82;0.70;;;17.00;1.00;;;;;;5062980;28;20128;-79
2023/08/16 00:38:04;;;;;;;1.23;0.80;;;17.00;1.00;;;;;;5063587;28;20044;-78
2023/08/16 00:40:31;;;;;;;0.73;0.50;;;17.00;29.60;;;;;;5047786;28;20056;-79
2023/08/16 00:42:57;;;;;;;0.95;0.70;;;16.90;99.90;;;;;;5062095;28;20145;-79
2023/08/16 00:45:24;;;;;;;0.70;0.60;;;16.90;99.90;;;;;;5063540;28;20076;-76
2023/08/16 00:47:51;;;;;;;0.82;0.63;;;16.90;99.90;;;;;;5062787;28;20502;-78
2023/08/16 00:50:18;;;;;;;0.50;0.50;;;16.90;99.90;;;;;;5063252;28;20047;-78
2023/08/16 00:52:45;;;;;;;0.47;0.47;;;16.80;99.90;;;;;;5059700;28;20051;-76
2023/08/16 00:55:12;;;;;;;0.50;0.50;;;16.80;99.90;;;;;;5060013;28;20080;-75
2023/08/16 00:57:39;;;;;;;0.50;0.47;;;16.80;99.90;;;;;;5057252;28;20044;-77
2023/08/16 01:00:06;;;;;;;0.68;0.68;;;16.70;99.90;;;;;;5061082;28;20526;-78
2023/08/16 01:02:33;;;;;;;0.60;0.60;;;16.70;1.00;;;;;;5059334;28;20040;-78
2023/08/16 01:05:00;;;;;;;0.93;0.60;;;16.70;1.00;;;;;;5053539;28;20049;-79
2023/08/16 01:07:27;;;;;;;0.88;0.70;;;16.70;1.00;;;;;;5056650;28;20041;-78
2023/08/16 01:09:53;;;;;;;1.13;0.90;;;16.70;1.00;;;;;;5056677;28;20101;-78
2023/08/16 01:12:43;;;;;;;0.82;0.70;;;16.60;1.00;;;;;;5057015;28;20088;-78
2023/08/16 01:15:20;;;;;;;0.88;0.60;;;16.50;1.00;;;;;;5050997;28;20204;-78
2023/08/16 01:17:47;;;;;;;1.30;0.70;;;16.40;10.90;;;;;;5057831;28;20076;-78
2023/08/16 01:20:14;;;;;;;0.65;0.60;;;16.30;99.90;;;;;;5035660;28;20048;-77
2023/08/16 01:22:53;;;;;;;0.80;0.70;;;16.30;99.90;;;;;;5053051;28;20151;-77
2023/08/16 01:25:44;;;;;;;0.70;0.50;;;16.30;99.90;;;;;;5059550;28;20048;-78
2023/08/16 01:28:11;;;;;;;0.85;0.70;;;16.20;99.90;;;;;;5055495;28;20045;-78
2023/08/16 01:30:39;;;;;;;0.70;0.52;;;16.20;99.90;;;;;;5064567;28;20094;-76
2023/08/16 01:33:09;;;;;;;0.68;0.60;;;16.20;99.90;;;;;;5055579;28;20559;-77
2023/08/16 01:35:36;;;;;;;0.70;0.50;;;16.20;99.90;;;;;;5061256;28;20369;-77
2023/08/16 01:38:04;;;;;;;0.73;0.60;;;16.10;99.90;;;;;;5059040;28;20040;-76
2023/08/16 01:40:34;;;;;;;0.63;0.50;;;16.10;99.90;;;;;;5066354;28;20040;-77
2023/08/16 01:43:02;;;;;;;0.65;0.60;;;16.00;99.90;;;;;;5060319;28;20063;-77
2023/08/16 01:45:29;;;;;;;0.68;0.68;;;16.00;1.00;;;;;;5063568;28;20547;-77
2023/08/16 01:47:56;;;;;;;0.70;0.60;;;15.90;1.00;;;;;;5064099;28;20063;-76
2023/08/16 01:50:23;;;;;;;0.77;0.65;;;15.90;50.20;;;;;;5061567;28;20047;-77
2023/08/16 01:52:51;;;;;;;0.80;0.65;;;15.90;99.90;;;;;;5061699;28;20075;-77
2023/08/16 01:55:17;;;;;;;1.38;0.98;;;15.90;99.90;;;;;;5079085;28;20044;-77
2023/08/16 01:57:45;;;;;;;0.60;0.60;;;15.90;99.90;;;;;;5061249;28;20044;-77
2023/08/16 02:00:12;;;;;;;0.70;0.60;;;15.80;99.90;;;;;;5062783;28;20048;-77
2023/08/16 02:02:39;;;;;;;0.93;0.60;;;15.80;99.90;;;;;;5062579;28;20197;-77
2023/08/16 02:05:06;;;;;;;1.17;0.90;;;15.70;99.90;;;;;;5046480;28;20059;-77
2023/08/16 02:07:33;;;;;;;0.65;0.45;;;15.70;99.90;;;;;;5062630;28;20076;-76
2023/08/16 02:10:00;;;;;;;0.77;0.50;;;15.70;99.90;;;;;;5064218;28;20380;-77
2023/08/16 02:12:27;;;;;;;1.33;0.70;;;15.70;1.00;;;;;;5056495;28;20055;-77
2023/08/16 02:14:53;;;;;;;0.85;0.77;;;15.60;1.00;;;;;;5060447;28;20468;-77
2023/08/16 02:17:20;;;;;;;1.40;0.65;;;15.60;1.00;;;;;;5064092;28;20048;-77
2023/08/16 02:19:48;;;;;;;1.00;0.75;;;15.60;1.00;;;;;;5064144;28;20040;-77
2023/08/16 02:22:15;;;;;;;0.50;0.50;;;15.60;1.00;;;;;;5074486;28;20052;-77
2023/08/16 02:24:41;;;;;;;0.60;0.55;;;15.50;1.00;;;;;;5058773;28;20597;-77
2023/08/16 02:27:08;;;;;;;0.50;0.50;;;15.50;1.00;;;;;;5061052;28;20056;-77
2023/08/16 02:29:35;;;;;;;1.38;0.70;;;15.50;1.00;;;;;;5064974;28;20044;-78
2023/08/16 02:32:02;;;;;;;0.60;0.57;;;15.50;22.90;;;;;;5060421;28;20049;-77
2023/08/16 02:34:29;;;;;;;0.85;0.77;;;15.40;55.40;;;;;;5048030;28;20178;-77
2023/08/16 02:36:55;;;;;;;0.40;0.40;;;15.30;64.00;;;;;;5066696;28;20049;-76
2023/08/16 02:39:22;;;;;;;0.73;0.52;;;15.30;99.90;;;;;;5066613;28;20067;-77
2023/08/16 02:41:49;;;;;;;1.35;0.63;;;15.30;99.90;;;;;;5065949;28;20056;-77
2023/08/16 02:44:17;;;;;;;0.65;0.65;;;15.30;99.90;;;;;;5065287;28;20037;-77
2023/08/16 02:46:43;;;;;;;0.70;0.70;;;15.30;99.90;;;;;;5067155;28;20786;-77
2023/08/16 02:49:10;;;;;;;0.65;0.52;;;15.30;99.90;;;;;;5083456;28;20049;-77
2023/08/16 02:51:37;;;;;;;1.60;0.80;;;15.30;99.90;;;;;;5066132;28;20044;-76
2023/08/16 02:54:06;;;;;;;0.63;0.60;;;15.20;99.90;;;;;;5065518;28;20389;-76
2023/08/16 02:56:32;;;;;;;0.70;0.70;;;15.20;99.90;;;;;;5047038;28;20068;-77
2023/08/16 02:58:59;;;;;;;0.50;0.50;;;15.20;99.90;;;;;;5068162;28;20048;-77
2023/08/16 03:01:26;;;;;;;0.63;0.63;;;15.20;99.90;;;;;;5049417;28;20121;-77
2023/08/16 03:03:53;;;;;;;0.40;0.40;;;15.10;99.90;;;;;;5048308;28;20048;-77
2023/08/16 03:06:19;;;;;;;0.77;0.57;;;15.10;99.90;;;;;;5067017;28;20048;-77
2023/08/16 03:08:46;;;;;;;0.70;0.70;;;15.10;99.90;;;;;;5066691;28;20040;-77
2023/08/16 03:11:13;;;;;;;0.45;0.45;;;15.00;99.90;;;;;;5064485;28;20048;-77
2023/08/16 03:13:40;;;;;;;0.52;0.52;;;15.00;99.90;;;;;;5060977;28;20037;-77
2023/08/16 03:16:06;;;;;;;0.80;0.80;;;14.90;99.90;;;;;;5065414;28;20780;-76
2023/08/16 03:18:33;;;;;;;0.82;0.65;;;14.90;1.00;;;;;;5063631;28;20036;-77
2023/08/16 03:21:00;;;;;;;0.95;0.70;;;14.90;99.90;;;;;;5049471;28;20495;-77
2023/08/16 03:23:26;;;;;;;1.00;0.73;;;14.80;99.90;;;;;;5065630;28;20048;-77
2023/08/16 03:25:53;;;;;;;0.82;0.70;;;14.80;1.00;;;;;;5065360;28;20064;-76
2023/08/16 03:28:20;;;;;;;0.95;0.68;;;14.80;1.00;;;;;;5059003;28;20654;-77
2023/08/16 03:30:47;;;;;;;0.57;0.57;;;14.90;30.70;;;;;;5048205;28;20098;-77
2023/08/16 03:33:13;;;;;;;0.77;0.60;;;14.90;99.90;;;;;;5059121;28;20423;-76
2023/08/16 03:35:40;;;;;;;0.63;0.50;;;14.90;99.90;;;;;;5063396;28;20072;-77
2023/08/16 03:38:07;;;;;;;0.85;0.80;;;14.80;99.90;;;;;;5065672;28;20492;-77
2023/08/16 03:40:34;;;;;;;0.90;0.60;;;14.80;99.90;;;;;;5067708;28;20372;-77
2023/08/16 03:43:01;;;;;;;0.60;0.60;;;14.80;99.90;;;;;;5061498;28;20048;-77
2023/08/16 03:45:28;;;;;;;1.00;0.68;;;14.80;99.90;;;;;;5065053;28;20044;-77
2023/08/16 03:47:56;;;;;;;0.68;0.60;;;14.80;99.90;;;;;;5048945;28;20098;-77
2023/08/16 03:50:23;;;;;;;1.20;0.77;;;14.70;99.70;;;;;;5066132;28;20052;-77
2023/08/16 03:52:50;;;;;;;1.02;0.65;;;14.60;99.90;;;;;;5048098;28;20048;-77
2023/08/16 03:55:17;;;;;;;0.75;0.75;;;14.60;99.90;;;;;;5066597;28;20446;-77
2023/08/16 03:57:43;;;;;;;0.70;0.60;;;14.60;99.90;;;;;;5063817;28;20068;-77
2023/08/16 04:00:11;;;;;;;0.80;0.80;;;14.50;99.90;;;;;;5066439;28;20404;-77
2023/08/16 04:02:40;;;;;;;0.70;0.70;;;14.50;99.90;;;;;;5066114;28;20059;-77
2023/08/16 04:05:08;;;;;;;0.70;0.70;;;14.40;99.90;;;;;;5066477;28;20082;-77
2023/08/16 04:07:35;;;;;;;0.52;0.50;;;14.50;99.90;;;;;;5049098;28;20041;-76
2023/08/16 04:10:02;;;;;;;0.45;0.45;;;14.40;99.90;;;;;;5066442;28;20048;-77
2023/08/16 04:12:29;;;;;;;0.73;0.60;;;14.50;99.90;;;;;;5063177;28;20376;-76
2023/08/16 04:14:56;;;;;;;1.13;0.70;;;14.40;99.90;;;;;;5049636;28;20052;-76
2023/08/16 04:17:22;;;;;;;0.50;0.50;;;14.40;99.90;;;;;;5065127;28;20072;-77
2023/08/16 04:19:50;;;;;;;0.80;0.70;;;14.40;99.90;;;;;;5066330;28;20078;-77
2023/08/16 04:22:17;;;;;;;0.60;0.60;;;14.40;99.90;;;;;;5063859;28;20049;-77
2023/08/16 04:24:43;;;;;;;0.50;0.50;;;14.30;99.90;;;;;;5066562;28;20083;-77
2023/08/16 04:27:10;;;;;;;0.57;0.57;;;14.30;99.90;;;;;;5045991;28;20056;-77
2023/08/16 04:29:37;;;;;;;0.90;0.60;;;14.30;99.90;;;;;;5063313;28;20114;-75
2023/08/16 04:32:04;;;;;;;0.63;0.60;;;14.30;99.90;;;;;;5058447;28;20109;-75
2023/08/16 04:34:31;;;;;;;0.88;0.68;;;14.30;99.90;;;;;;5066251;28;20120;-77
2023/08/16 04:36:57;;;;;;;0.75;0.70;;;14.20;99.90;;;;;;5066370;28;20052;-77
2023/08/16 04:39:24;;;;;;;0.40;0.40;;;14.20;99.90;;;;;;5067539;28;20123;-77
2023/08/16 04:41:51;;;;;;;0.40;0.40;;;14.20;99.90;;;;;;5065497;28;20040;-77
2023/08/16 04:44:18;;;;;;;0.63;0.50;;;14.10;99.90;;;;;;5065029;28;20052;-77
2023/08/16 04:46:44;;;;;;;0.55;0.50;;;14.10;99.90;;;;;;5066213;28;20056;-77
2023/08/16 04:49:11;;;;;;;0.68;0.60;;;14.10;99.90;;;;;;5059772;28;20104;-77
2023/08/16 04:51:38;;;;;;;0.40;0.40;;;14.10;99.90;;;;;;5063020;28;20495;-77
2023/08/16 04:54:05;;;;;;;0.50;0.50;;;14.10;1.00;;;;;;5063302;28;20048;-77
2023/08/16 04:56:31;;;;;;;0.32;0.32;;;14.10;1.00;;;;;;5026646;28;20549;-77
2023/08/16 04:58:58;;;;;;;0.43;0.43;;;14.10;1.00;;;;;;5052296;28;20056;-77
2023/08/16 05:01:25;;;;;;;0.43;0.43;;;14.10;1.00;;;;;;5064907;28;20109;-77
2023/08/16 05:03:52;;;;;;;0.50;0.50;;;14.10;1.00;;;;;;5059549;28;20059;-78
2023/08/16 05:06:19;;;;;;;0.22;0.20;;;14.20;1.00;;;;;;5055007;28;20558;-75
2023/08/16 05:08:45;;;;;;;0.63;0.63;;;14.10;1.00;;;;;;5059132;28;20102;-77
2023/08/16 05:11:12;;;;;;;0.60;0.60;;;14.10;1.00;;;;;;5063841;28;20463;-77
2023/08/16 05:13:39;;;;;;;0.65;0.60;;;14.20;1.00;;;;;;5057196;28;20870;-76
2023/08/16 05:16:06;;;;;;;0.57;0.55;;;14.10;1.00;;;;;;5060805;28;20049;-76
2023/08/16 05:18:32;;;;;;;0.60;0.60;;;14.20;1.00;;;;;;5061493;28;20334;-77
2023/08/16 05:21:00;;;;;;;0.60;0.60;;;14.20;1.00;;;;;;5063234;28;20048;-77
2023/08/16 05:23:27;;;;;;;0.63;0.63;;;14.20;1.00;;;;;;5062940;28;20460;-78
2023/08/16 05:25:54;;;;;;;0.50;0.50;;;14.20;1.00;;;;;;5045069;28;20048;-77
2023/08/16 05:28:22;;;;;;;0.95;0.70;;;14.20;1.00;;;;;;5059832;28;20051;-78
2023/08/16 05:30:48;;;;;;;0.52;0.52;;;14.20;1.00;;;;;;5042278;28;20117;-78
2023/08/16 05:33:15;;;;;;;0.57;0.57;;;14.30;1.00;;;;;;5045758;28;20041;-78
2023/08/16 05:35:42;;;;;;;0.73;0.73;;;14.30;1.00;;;;;;5054190;28;20044;-77
2023/08/16 05:38:09;;;;;;;0.50;0.50;;;14.40;1.00;;;;;;5044906;28;20044;-76
2023/08/16 05:40:36;;;;;;;0.82;0.70;;;14.40;1.00;;;;;;5040108;28;20558;-78
2023/08/16 05:43:03;;;;;;;1.00;0.80;;;14.40;1.00;;;;;;5046668;28;20733;-78
2023/08/16 05:45:31;;;;;;;1.20;0.80;;;14.50;1.00;;;;;;5044942;28;20602;-78
2023/08/16 05:47:58;;;;;;;1.20;0.77;;;14.50;1.00;;;;;;5019145;28;20078;-77
2023/08/16 05:50:25;;;;;;;0.73;0.68;;;14.50;1.00;;;;;;5037791;28;20055;-78
2023/08/16 05:52:52;;;;;;;0.82;0.60;;;14.60;1.00;;;;;;5036047;28;20628;-78
2023/08/16 05:55:18;;;;;;;0.75;0.63;;;14.60;1.00;;;;;;5019852;28;20052;-78
2023/08/16 05:57:45;;;;;;;1.00;0.70;;;14.70;1.00;;;;;;5033816;28;20171;-79
2023/08/16 06:00:12;;;;;;;1.70;0.63;;;14.80;1.00;;;;;;5050148;28;20506;-77
2023/08/16 06:02:39;;;;;;;1.20;1.02;;;14.80;1.00;;;;;;5059374;28;20049;-78
2023/08/16 06:05:06;;;;;;;0.98;0.90;;;14.90;1.00;;;;;;5058951;28;20148;-77
2023/08/16 06:07:33;;;;;;;1.20;0.68;;;14.90;1.00;;;;;;5062586;28;20406;-78
2023/08/16 06:10:00;;;;;;;1.48;0.70;;;15.00;1.00;;;;;;5065033;28;20106;-78
2023/08/16 06:12:27;;;;;;;0.85;0.75;;;15.10;1.00;;;;;;5060442;28;20044;-78
2023/08/16 06:14:53;;;;;;;0.75;0.68;;;15.10;1.00;;;;;;5063393;28;20048;-78
2023/08/16 06:17:20;;;;;;;1.15;0.73;;;15.20;1.00;;;;;;5056741;28;20239;-78
2023/08/16 06:19:47;;;;;;;0.63;0.60;;;15.30;1.00;;;;;;5063259;28;20052;-78
2023/08/16 06:22:14;;;;;;;0.90;0.68;;;15.40;1.00;;;;;;5062834;28;20230;-77
2023/08/16 06:24:41;;;;;;;0.85;0.65;;;15.40;1.00;;;;;;5054519;28;20040;-77
2023/08/16 06:27:08;;;;;;;0.70;0.60;;;15.50;1.00;;;;;;5058332;28;20048;-77
2023/08/16 06:29:35;;;;;;;0.73;0.73;;;15.60;1.00;;;;;;5061314;28;20088;-78
2023/08/16 06:32:03;;;;;;;0.60;0.60;;;15.70;1.00;;;;;;5062140;28;20494;-77
2023/08/16 06:34:30;;;;;;;0.77;0.60;;;15.80;1.00;;;;;;5078146;28;20041;-77
2023/08/16 06:36:58;;;;;;;0.80;0.65;;;15.80;1.00;;;;;;5043201;28;20076;-77
2023/08/16 06:39:27;;;;;;;0.98;0.80;;;15.90;1.00;;;;;;5094767;28;20153;-78
2023/08/16 06:41:54;;;;;;;0.82;0.80;;;16.00;1.00;;;;;;5059924;28;20097;-78
2023/08/16 06:44:21;;;;;;;0.70;0.70;;;16.00;1.00;;;;;;5059614;28;20056;-77
2023/08/16 06:46:47;;;;;;;1.20;0.80;;;16.10;1.00;;;;;;5042975;28;20083;-77
2023/08/16 06:49:14;;;;;;;1.00;0.70;;;16.20;1.00;;;;;;5052218;28;20139;-79
2023/08/16 06:51:41;;;;;;;0.82;0.70;;;16.30;1.00;;;;;;5039340;28;20082;-77
2023/08/16 06:54:08;;;;;;;1.10;0.80;;;16.30;99.90;;;;;;5055804;28;20048;-77
2023/08/16 06:56:35;;;;;;;0.85;0.77;;;16.40;99.90;;;;;;5060272;28;20045;-77
2023/08/16 06:59:05;;;;;;;0.80;0.80;;;16.50;99.90;;;;;;5062053;28;20048;-77
2023/08/16 07:01:32;;;;;;;0.57;0.57;;;16.50;99.90;;;;;;5061321;28;20068;-77
2023/08/16 07:03:58;;;;;;;0.98;0.90;;;16.60;99.90;;;;;;5060004;28;20068;-77
2023/08/16 07:06:26;;;;;;;0.95;0.85;;;16.70;99.90;;;;;;5055478;28;20084;-77
2023/08/16 07:08:53;;;;;;;0.85;0.80;;;16.70;99.90;;;;;;5057267;28;20425;-77
2023/08/16 07:11:20;;;;;;;1.13;0.73;;;16.80;99.90;;;;;;5060555;28;20071;-77
2023/08/16 07:13:47;;;;;;;1.13;0.90;;;16.90;99.90;;;;;;5061757;28;20067;-77
2023/08/16 07:16:14;;;;;;;1.23;0.82;;;16.90;99.90;;;;;;5064899;28;20056;-77
2023/08/16 07:18:41;;;;;;;0.73;0.65;;;17.00;1.00;;;;;;5098638;28;20088;-78
2023/08/16 07:21:07;;;;;;;1.00;0.90;;;17.10;1.00;;;;;;5049096;28;20127;-77
2023/08/16 07:23:34;;;;;;;1.08;0.88;;;17.10;99.90;;;;;;5065898;28;20067;-78
2023/08/16 07:26:02;;;;;;;0.75;0.60;;;17.20;99.90;;;;;;5030912;28;20053;-78
2023/08/16 07:28:29;;;;;;;0.75;0.60;;;17.20;99.90;;;;;;5058030;28;20601;-77
2023/08/16 07:30:55;;;;;;;1.17;0.95;;;17.20;99.90;;;;;;5065258;28;20059;-77
2023/08/16 07:33:22;;;;;;;1.38;0.82;;;17.30;99.90;;;;;;5054914;28;20060;-77
2023/08/16 07:35:49;;;;;;;1.30;0.80;;;17.40;99.90;;;;;;5060559;28;20087;-75
2023/08/16 07:38:16;;;;;;;0.85;0.80;;;17.50;99.90;;;;;;5059717;28;20994;-77
2023/08/16 07:40:47;;;;;;;1.45;1.08;;;17.60;73.30;;;;;;5059339;28;20040;-77
2023/08/16 07:43:14;;;;;;;0.82;0.80;;;17.70;98.40;;;;;;5050801;28;20053;-77
2023/08/16 07:45:41;;;;;;;1.02;0.70;;;17.70;1.00;;;;;;5065050;28;20049;-73
2023/08/16 07:48:08;;;;;;;1.27;0.90;;;17.80;99.90;;;;;;5062428;28;20087;-74
2023/08/16 07:50:36;;;;;;;1.00;0.80;;;17.90;99.90;;;;;;5042343;28;20147;-77
2023/08/16 07:53:03;;;;;;;0.93;0.82;;;17.90;99.90;;;;;;5043394;28;20051;-79
2023/08/16 07:55:33;;;;;;;1.10;1.00;;;18.00;1.00;;;;;;5063928;28;20064;-80
2023/08/16 07:58:00;;;;;;;1.10;0.82;;;18.10;1.00;;;;;;5065783;28;20072;-78
2023/08/16 08:00:27;;;;;;;0.90;0.75;;;18.10;99.90;;;;;;5065324;28;20044;-79
2023/08/16 08:02:54;;;;;;;0.95;0.80;;;18.20;99.90;;;;;;5065968;28;20106;-79
2023/08/16 08:05:26;;;;;;;2.95;1.00;;;18.20;99.90;;;;;;5047212;28;20056;-79
2023/08/16 08:07:53;;;;;;;1.45;0.80;;;18.20;99.90;;;;;;5064243;28;20113;-79
2023/08/16 08:10:20;;;;;;;0.65;0.65;;;18.30;99.90;;;;;;5045774;28;20483;-79
2023/08/16 08:12:47;;;;;;;1.80;1.38;;;18.30;99.90;;;;;;5060208;28;20045;-77
2023/08/16 08:15:14;;;;;;;1.35;0.85;;;18.40;89.10;;;;;;5064269;28;20492;-75
2023/08/16 08:17:41;;;;;;;1.10;1.00;;;18.50;1.00;;;;;;5048429;28;20566;-76
2023/08/16 08:20:08;;;;;;;1.35;1.08;;;18.70;99.90;;;;;;5060797;28;20131;-76
2023/08/16 08:22:35;;;;;;;1.67;1.10;;;18.70;99.90;;;;;;5064518;28;20051;-85
2023/08/16 08:25:03;;;;;;;1.60;1.20;;;18.80;1.00;;;;;;5061071;28;20041;-79
2023/08/16 08:27:30;;;;;;;1.10;0.88;;;18.70;99.90;;;;;;5059435;28;20130;-79
2023/08/16 08:29:57;;;;;;;1.13;0.70;;;18.80;99.90;;;;;;5065270;28;20131;-79
2023/08/16 08:32:24;;;;;;;3.15;1.33;;;18.90;19.50;;;;;;5067024;28;20134;-81
2023/08/16 08:34:51;;;;;;;1.15;1.00;;;19.00;1.00;;;;;;5099757;28;20094;-80
2023/08/16 08:37:18;;;;;;;0.82;0.68;;;19.10;1.00;;;;;;5063437;28;20052;-80
2023/08/16 08:39:44;;;;;;;1.23;1.05;;;19.20;99.90;;;;;;5062901;28;20048;-80
2023/08/16 08:42:11;;;;;;;1.63;1.02;;;19.30;4.10;;;;;;5057380;28;20135;-80
2023/08/16 08:44:38;;;;;;;1.42;1.08;;;19.30;99.90;;;;;;5060800;28;20086;-79
2023/08/16 08:47:07;;;;;;;1.35;1.13;;;19.40;99.90;;;;;;5071435;28;20045;-90
2023/08/16 08:49:42;;;;;;;1.00;0.90;;;19.40;56.90;;;;;;5070100;28;20073;-88
2023/08/16 08:52:09;;;;;;;0.82;0.73;;;19.50;1.00;;;;;;5071144;28;20049;-92
2023/08/16 08:54:36;;;;;;;1.13;0.75;;;19.60;1.00;;;;;;5073654;28;20041;-93
2023/08/16 08:57:03;;;;;;;1.15;0.88;;;19.70;1.00;;;;;;5074151;28;20044;-91
2023/08/16 08:59:32;;;;;;;1.92;0.95;;;19.80;1.00;;;;;;5069534;28;20090;-89
2023/08/16 09:02:00;;;;;;;1.63;1.13;;;19.90;99.90;;;;;;5055945;28;20054;-88
2023/08/16 09:04:29;;;;;;;1.33;1.10;;;20.00;99.90;;;;;;5071634;28;20048;-91
2023/08/16 09:06:56;;;;;;;1.83;1.10;;;20.00;99.90;;;;;;5072796;28;20060;-91
2023/08/16 09:09:23;;;;;;;1.38;0.90;;;20.00;99.90;;;;;;5072581;28;20535;-91
2023/08/16 09:11:49;;;;;;;0.98;0.85;;;20.10;99.90;;;;;;5055780;28;20098;-91
2023/08/16 09:14:16;;;;;;;0.70;0.70;;;20.30;99.90;;;;;;5073523;28;20106;-92
2023/08/16 09:16:43;;;;;;;1.30;0.90;;;20.40;99.90;;;;;;5070438;28;20057;-91
2023/08/16 09:19:16;;;;;;;1.67;1.17;;;20.60;99.90;;;;;;5065454;28;20464;-90
2023/08/16 09:21:42;;;;;;;;;;;20.60;99.90;;;;;;5074308;28;20102;-91
2023/08/16 09:24:12;;;;;;;1.70;1.20;;;20.70;99.90;;;;;;5106030;28;20256;-91
2023/08/16 09:26:39;;;;;;;1.73;1.20;;;20.80;99.90;;;;;;5065934;28;20114;-91
2023/08/16 09:29:06;;;;;;;1.23;0.95;;;20.80;99.90;;;;;;5067852;28;20053;-90
2023/08/16 09:31:41;;;;;;;2.40;1.10;;;20.90;99.90;;;;;;5070810;28;20055;-90
2023/08/16 09:34:08;;;;;;;0.80;0.70;;;21.00;99.90;;;;;;5066639;28;20589;-89
2023/08/16 09:36:35;;;;;;;1.38;0.85;;;21.10;99.90;;;;;;5067047;28;20049;-92
2023/08/16 09:39:08;;;;;;;0.93;0.85;;;21.30;99.00;;;;;;5056075;28;20053;-91
2023/08/16 09:41:38;;;;;;;0.90;0.70;;;21.30;92.30;;;;;;5058234;28;20215;-85
2023/08/16 09:44:06;;;;;;;0.75;0.63;;;21.40;84.80;;;;;;5065643;28;20083;-83
2023/08/16 09:46:33;;;;;;;1.90;1.10;;;21.50;85.50;;;;;;5065004;28;20072;-88
2023/08/16 09:49:06;;;;;;;1.60;1.17;;;21.50;77.60;;;;;;5057497;28;20044;-84
2023/08/16 09:51:40;;;;;;;1.25;0.95;;;21.40;73.00;;;;;;5047665;28;20119;-83
2023/08/16 09:54:13;;;;;;;0.82;0.70;;;21.50;76.50;;;;;;5061977;28;20060;-84
2023/08/16 09:56:41;;;;;;;1.10;1.00;;;21.60;88.90;;;;;;5058893;28;20044;-83
2023/08/16 09:59:28;;;;;;;1.08;0.90;;;21.80;75.50;;;;;;5061252;28;20048;-82
2023/08/16 10:01:58;;;;;;;1.20;0.90;;;21.80;69.70;;;;;;5046877;28;20204;-83
2023/08/16 10:04:28;;;;;;;0.75;0.60;;;21.90;60.50;;;;;;5064928;28;20526;-84
2023/08/16 10:06:58;;;;;;;1.10;1.00;;;21.90;63.60;;;;;;5095230;28;20121;-84
2023/08/16 10:09:27;;;;;;;1.00;0.85;;;22.00;67.10;;;;;;5048792;28;20117;-83
2023/08/16 10:11:54;;;;;;;1.08;0.90;;;22.10;60.50;;;;;;5056053;28;20129;-82
2023/08/16 10:14:21;;;;;;;1.25;0.88;;;22.30;59.00;;;;;;5057107;28;20048;-83
2023/08/16 10:16:48;;;;;;;2.75;1.65;;;22.40;49.80;;;;;;5060080;28;20116;-82
2023/08/16 10:19:17;;;;;;;1.13;0.80;;;22.30;45.60;;;;;;5043270;28;20485;-83
2023/08/16 10:21:45;;;;;;;1.15;0.90;;;22.40;42.20;;;;;;5061971;28;20055;-83
2023/08/16 10:24:13;;;;;;;0.82;0.80;;;22.50;40.40;;;;;;5062569;28;20567;-84
2023/08/16 10:26:40;;;;;;;1.05;0.80;;;22.60;38.70;;;;;;5059946;28;20079;-84
2023/08/16 10:29:09;;;;;;;0.88;0.80;;;22.60;45.30;;;;;;5045466;28;20061;-83
2023/08/16 10:31:39;;;;;;;1.00;0.90;;;22.70;41.90;;;;;;5048246;28;20053;-83
2023/08/16 10:34:07;;;;;;;0.77;0.70;;;22.90;39.60;;;;;;5064550;28;20060;-84
2023/08/16 10:36:34;;;;;;;1.20;1.05;;;23.00;32.60;;;;;;5064598;28;20075;-83
2023/08/16 10:39:00;;;;;;;1.40;0.82;;;23.00;29.90;;;;;;5063178;28;20106;-84
2023/08/16 10:41:27;;;;;;;1.50;0.95;;;23.20;31.10;;;;;;5043232;28;20114;-83
2023/08/16 10:43:54;;;;;;;1.15;0.85;;;23.30;31.70;;;;;;5061738;28;20463;-83
2023/08/16 10:46:43;;;;;;;0.88;0.70;;;23.50;30.70;;;;;;5063648;28;20767;-84
2023/08/16 10:49:11;;;;;;;0.93;0.70;;;23.80;36.20;;;;;;5048429;28;20045;-83
2023/08/16 10:51:48;;;;;;;0.77;0.60;;;24.00;29.00;;;;;;5064384;28;20435;-83
2023/08/16 10:54:15;;;;;;;1.05;0.70;;;24.10;25.70;;;;;;5067030;28;20080;-83
2023/08/16 10:56:47;;;;;;;1.02;0.80;;;24.30;24.70;;;;;;5049764;28;20155;-83
2023/08/16 10:59:15;;;;;;;0.70;0.63;;;24.60;22.80;;;;;;5053190;28;20052;-83
2023/08/16 11:01:46;;;;;;;0.80;0.70;;;24.80;22.60;;;;;;5035538;28;20053;-81
2023/08/16 11:04:13;;;;;;;1.63;0.80;;;25.00;20.60;;;;;;5050361;28;20056;-82
2023/08/16 11:06:40;;;;;;;0.80;0.70;;;25.30;19.90;;;;;;5081001;28;20056;-83
2023/08/16 11:09:21;;;;;;;1.33;0.95;;;25.40;15.10;;;;;;5094795;28;20153;-84
2023/08/16 11:11:49;;;;;;;1.33;1.00;;;25.70;13.40;;;;;;5031712;28;20045;-84
2023/08/16 11:14:17;;;;;;;1.02;0.60;;;25.90;13.10;;;;;;5069067;28;20152;-84
2023/08/16 11:16:44;;;;;;;0.88;0.80;;;26.10;9.90;;;;;;5101693;28;20049;-83
2023/08/16 11:19:11;;;;;;;0.77;0.77;;;26.40;10.10;;;;;;5101701;28;20406;-84
2023/08/16 11:21:44;;;;;;;1.48;1.02;;;26.50;5.80;;;;;;5068901;28;20126;-83
2023/08/16 11:24:11;;;;;;;0.95;0.82;;;26.50;6.00;;;;;;5065357;28;20053;-83
2023/08/16 11:26:38;;;;;;;0.70;0.70;;;26.90;5.70;;;;;;5096255;28;20049;-83
2023/08/16 11:29:05;;;;;;;1.13;0.70;;;26.90;2.60;;;;;;5066676;28;20044;-82
2023/08/16 11:31:34;;;;;;;0.57;0.57;;;26.70;1.00;;;;;;5067294;28;20044;-83
2023/08/16 11:34:00;;;;;;;1.38;0.90;;;26.50;1.50;;;;;;5065310;28;20498;-83
2023/08/16 11:36:27;;;;;;;1.02;0.85;;;26.20;1.00;;;;;;5064986;28;20458;-83
2023/08/16 11:38:54;;;;;;;0.68;0.63;;;26.10;1.00;;;;;;5065369;28;20041;-82
2023/08/16 11:41:21;;;;;;;0.80;0.57;;;26.10;1.00;;;;;;5063756;28;20133;-84
2023/08/16 11:43:56;;;;;;;1.35;0.70;;;25.80;1.00;;;;;;5067478;28;20125;-83
2023/08/16 11:46:23;;;;;;;0.73;0.60;;;26.30;1.00;;;;;;5050382;28;20102;-83
2023/08/16 11:48:50;;;;;;;1.10;0.70;;;27.10;1.00;;;;;;5068862;28;20131;-83
2023/08/16 11:51:17;;;;;;;1.50;0.80;;;27.10;1.00;;;;;;5066966;28;20056;-83
2023/08/16 11:53:44;;;;;;;0.70;0.50;;;27.10;1.00;;;;;;5066891;28;20483;-83
2023/08/16 11:56:11;;;;;;;0.70;0.70;;;27.30;1.00;;;;;;5066516;28;20139;-83
2023/08/16 11:58:45;;;;;;;0.70;0.60;;;27.70;1.00;;;;;;5068104;28;20131;-82
2023/08/16 12:01:14;;;;;;;1.08;0.75;;;28.10;1.00;;;;;;5067582;28;20396;-83
2023/08/16 12:03:42;;;;;;;0.77;0.70;;;28.60;1.00;;;;;;5066378;28;20072;-83
2023/08/16 12:06:10;;;;;;;1.25;0.88;;;28.80;1.00;;;;;;5066665;28;20823;-83
2023/08/16 12:08:52;;;;;;;1.63;0.77;;;29.20;1.00;;;;;;5065226;28;20045;-83
2023/08/16 12:11:28;;;;;;;;;;;29.70;1.00;;;;;;5062610;28;20052;-84
2023/08/16 12:13:55;;;;;;;0.63;0.63;;;29.80;1.00;;;;;;5068075;28;20070;-83
2023/08/16 12:16:22;;;;;;;1.38;0.70;;;30.20;1.00;;;;;;5066474;28;20737;-83
2023/08/16 12:18:49;;;;;;;0.60;0.60;;;30.50;1.00;;;;;;5068434;28;20052;-82
2023/08/16 12:21:16;;;;;;;0.80;0.70;;;30.50;1.00;;;;;;5050259;28;20237;-84
2023/08/16 12:23:43;;;;;;;0.75;0.65;;;30.90;1.00;;;;;;5066234;28;20462;-84
2023/08/16 12:26:10;;;;;;;0.65;0.60;;;31.20;1.00;;;;;;5063031;28;20060;-83
2023/08/16 12:28:37;;;;;;;0.60;0.52;;;30.60;1.00;;;;;;5048201;28;20045;-84
2023/08/16 12:31:04;;;;;;;1.08;0.90;;;29.90;1.00;;;;;;5066115;28;20446;-83
2023/08/16 12:33:31;;;;;;;1.00;0.70;;;29.70;1.00;;;;;;5067951;28;20392;-83
2023/08/16 12:35:58;;;;;;;0.40;0.40;;;29.90;1.00;;;;;;5065994;28;20132;-83
2023/08/16 12:38:25;;;;;;;0.85;0.45;;;29.70;1.00;;;;;;5066604;28;20055;-83
2023/08/16 12:40:52;;;;;;;1.33;0.60;;;29.20;1.00;;;;;;5065013;28;20950;-83
2023/08/16 12:43:19;;;;;;;0.77;0.50;;;28.50;1.00;;;;;;5031939;28;20501;-83
2023/08/16 12:45:46;;;;;;;0.77;0.55;;;28.00;1.00;;;;;;5067361;28;20411;-84
2023/08/16 12:48:14;;;;;;;0.90;0.60;;;27.70;1.00;;;;;;5067581;28;20053;-82
2023/08/16 12:50:41;;;;;;;0.73;0.50;;;27.40;1.00;;;;;;5066101;28;20052;-83
2023/08/16 12:53:07;;;;;;;0.50;0.50;;;27.10;1.00;;;;;;5066547;28;20515;-83